sensor_id;sensor_type;location;lat;lon;timestamp;temperature;humidity
43185;DHT22;28803;52.308;19.096;2023-07-20T00:01:15;16.00;1.00
43185;DHT22;28803;52.308;19.096;2023-07-20T00:03:43;16.10;1.00
43185;DHT22;28803;52.308;19.096;2023-07-20T00:06:10;16.10;1.00
43185;DHT22;28803;52.308;19.096;2023-07-20T00:08:37;16.10;99.90
43185;DHT22;28803;52.308;19.096;2023-07-20T00:15:11;16.10;1.00
43185;DHT22;28803;52.308;19.096;2023-07-20T00:17:39;16.10;94.20
43185;DHT22;28803;52.308;19.096;2023-07-20T00:20:07;16.10;99.90
43185;DHT22;28803;52.308;19.096;2023-07-20T00:22:34;16.10;99.90
43185;DHT22;28803;52.308;19.096;2023-07-20T00:25:02;16.10;1.00
43185;DHT22;28803;52.308;19.096;2023-07-20T00:27:30;16.10;41.60
43185;DHT22;28803;52.308;19.096;2023-07-20T00:29:57;16.00;31.70
43185;DHT22;28803;52.308;19.096;2023-07-20T00:32:25;16.00;1.00
43185;DHT22;28803;52.308;19.096;2023-07-20T00:34:52;16.00;1.00
43185;DHT22;28803;52.308;19.096;2023-07-20T00:37:19;16.10;1.00
43185;DHT22;28803;52.308;19.096;2023-07-20T00:39:46;16.10;1.00
43185;DHT22;28803;52.308;19.096;2023-07-20T00:42:14;16.10;1.00
43185;DHT22;28803;52.308;19.096;2023-07-20T00:44:41;16.10;1.00
43185;DHT22;28803;52.308;19.096;2023-07-20T00:47:08;16.10;1.00
43185;DHT22;28803;52.308;19.096;2023-07-20T00:49:36;16.10;1.00
43185;DHT22;28803;52.308;19.096;2023-07-20T00:52:07;16.10;1.00
43185;DHT22;28803;52.308;19.096;2023-07-20T00:54:34;16.10;1.00
43185;DHT22;28803;52.308;19.096;2023-07-20T00:57:02;16.10;1.00
43185;DHT22;28803;52.308;19.096;2023-07-20T00:59:29;16.10;23.70
43185;DHT22;28803;52.308;19.096;2023-07-20T01:01:57;16.10;99.90
43185;DHT22;28803;52.308;19.096;2023-07-20T01:04:24;16.00;99.90
43185;DHT22;28803;52.308;19.096;2023-07-20T01:07:10;15.90;99.90
43185;DHT22;28803;52.308;19.096;2023-07-20T01:09:51;15.80;99.90
43185;DHT22;28803;52.308;19.096;2023-07-20T01:12:30;15.80;1.00
43185;DHT22;28803;52.308;19.096;2023-07-20T01:15:00;15.70;1.00
43185;DHT22;28803;52.308;19.096;2023-07-20T01:17:27;15.60;1.00
43185;DHT22;28803;52.308;19.096;2023-07-20T01:19:54;15.50;1.00
43185;DHT22;28803;52.308;19.096;2023-07-20T01:28:16;15.60;1.00
43185;DHT22;28803;52.308;19.096;2023-07-20T01:30:55;15.60;1.00
43185;DHT22;28803;52.308;19.096;2023-07-20T01:33:24;15.60;1.80
43185;DHT22;28803;52.308;19.096;2023-07-20T01:35:56;15.60;8.60
43185;DHT22;28803;52.308;19.096;2023-07-20T01:38:25;15.60;14.40
43185;DHT22;28803;52.308;19.096;2023-07-20T01:40:52;15.60;17.20
43185;DHT22;28803;52.308;19.096;2023-07-20T01:43:20;15.60;20.00
43185;DHT22;28803;52.308;19.096;2023-07-20T01:45:47;15.70;24.50
43185;DHT22;28803;52.308;19.096;2023-07-20T01:48:15;15.80;23.60
43185;DHT22;28803;52.308;19.096;2023-07-20T01:50:42;15.80;19.90
43185;DHT22;28803;52.308;19.096;2023-07-20T01:53:10;15.80;16.90
43185;DHT22;28803;52.308;19.096;2023-07-20T01:55:37;15.70;11.70
43185;DHT22;28803;52.308;19.096;2023-07-20T01:58:05;15.80;4.30
43185;DHT22;28803;52.308;19.096;2023-07-20T02:00:32;15.70;3.60
43185;DHT22;28803;52.308;19.096;2023-07-20T02:03:00;15.70;3.50
43185;DHT22;28803;52.308;19.096;2023-07-20T02:05:27;15.70;10.60
43185;DHT22;28803;52.308;19.096;2023-07-20T02:07:55;15.70;12.20
43185;DHT22;28803;52.308;19.096;2023-07-20T02:10:22;15.70;7.50
43185;DHT22;28803;52.308;19.096;2023-07-20T02:12:49;15.50;5.70
43185;DHT22;28803;52.308;19.096;2023-07-20T02:15:17;15.30;23.50
43185;DHT22;28803;52.308;19.096;2023-07-20T02:17:45;15.20;48.60
43185;DHT22;28803;52.308;19.096;2023-07-20T02:20:13;15.00;64.70
43185;DHT22;28803;52.308;19.096;2023-07-20T02:22:40;15.00;78.20
43185;DHT22;28803;52.308;19.096;2023-07-20T02:25:08;14.90;91.00
43185;DHT22;28803;52.308;19.096;2023-07-20T02:27:37;14.80;94.20
43185;DHT22;28803;52.308;19.096;2023-07-20T02:30:04;14.80;99.10
43185;DHT22;28803;52.308;19.096;2023-07-20T02:32:33;14.80;99.90
43185;DHT22;28803;52.308;19.096;2023-07-20T02:35:01;14.80;99.90
43185;DHT22;28803;52.308;19.096;2023-07-20T02:37:31;14.80;99.90
43185;DHT22;28803;52.308;19.096;2023-07-20T02:39:58;14.80;99.90
43185;DHT22;28803;52.308;19.096;2023-07-20T02:42:25;14.80;99.90
43185;DHT22;28803;52.308;19.096;2023-07-20T02:44:52;14.80;99.90
43185;DHT22;28803;52.308;19.096;2023-07-20T02:47:20;14.80;99.90
43185;DHT22;28803;52.308;19.096;2023-07-20T02:49:47;14.80;99.90
43185;DHT22;28803;52.308;19.096;2023-07-20T02:52:15;14.80;99.90
43185;DHT22;28803;52.308;19.096;2023-07-20T02:54:42;14.80;99.90
43185;DHT22;28803;52.308;19.096;2023-07-20T02:57:09;14.80;99.90
43185;DHT22;28803;52.308;19.096;2023-07-20T02:59:36;14.90;99.90
43185;DHT22;28803;52.308;19.096;2023-07-20T03:02:04;14.90;99.90
43185;DHT22;28803;52.308;19.096;2023-07-20T03:04:31;14.90;99.90
43185;DHT22;28803;52.308;19.096;2023-07-20T03:06:58;14.90;99.90
43185;DHT22;28803;52.308;19.096;2023-07-20T03:09:26;14.90;99.90
43185;DHT22;28803;52.308;19.096;2023-07-20T03:11:54;15.00;99.90
43185;DHT22;28803;52.308;19.096;2023-07-20T03:14:21;15.00;99.90
43185;DHT22;28803;52.308;19.096;2023-07-20T03:16:50;15.00;99.90
43185;DHT22;28803;52.308;19.096;2023-07-20T03:19:17;15.00;99.90
43185;DHT22;28803;52.308;19.096;2023-07-20T03:21:44;15.00;99.90
43185;DHT22;28803;52.308;19.096;2023-07-20T03:24:12;15.00;99.90
43185;DHT22;28803;52.308;19.096;2023-07-20T03:26:39;15.00;99.90
43185;DHT22;28803;52.308;19.096;2023-07-20T03:29:06;15.00;99.90
43185;DHT22;28803;52.308;19.096;2023-07-20T03:31:33;15.00;99.90
43185;DHT22;28803;52.308;19.096;2023-07-20T03:34:00;15.00;99.90
43185;DHT22;28803;52.308;19.096;2023-07-20T03:36:28;15.00;99.90
43185;DHT22;28803;52.308;19.096;2023-07-20T03:38:55;15.00;99.90
43185;DHT22;28803;52.308;19.096;2023-07-20T03:41:23;15.00;99.90
43185;DHT22;28803;52.308;19.096;2023-07-20T03:43:50;15.00;99.90
43185;DHT22;28803;52.308;19.096;2023-07-20T03:46:17;15.00;99.90
43185;DHT22;28803;52.308;19.096;2023-07-20T03:48:44;14.90;99.90
43185;DHT22;28803;52.308;19.096;2023-07-20T03:51:11;14.90;99.90
43185;DHT22;28803;52.308;19.096;2023-07-20T03:53:39;14.90;99.90
43185;DHT22;28803;52.308;19.096;2023-07-20T03:56:06;14.80;99.90
43185;DHT22;28803;52.308;19.096;2023-07-20T03:58:33;14.80;99.90
43185;DHT22;28803;52.308;19.096;2023-07-20T04:01:01;14.80;99.90
43185;DHT22;28803;52.308;19.096;2023-07-20T04:03:28;14.80;99.90
43185;DHT22;28803;52.308;19.096;2023-07-20T04:05:55;14.70;99.90
43185;DHT22;28803;52.308;19.096;2023-07-20T04:08:23;14.70;99.90
43185;DHT22;28803;52.308;19.096;2023-07-20T04:10:52;14.70;99.90
43185;DHT22;28803;52.308;19.096;2023-07-20T04:13:19;14.70;99.90
43185;DHT22;28803;52.308;19.096;2023-07-20T04:15:47;14.80;99.90
43185;DHT22;28803;52.308;19.096;2023-07-20T04:18:14;14.80;99.90
43185;DHT22;28803;52.308;19.096;2023-07-20T04:20:41;14.80;99.90
43185;DHT22;28803;52.308;19.096;2023-07-20T04:23:09;14.90;99.90
43185;DHT22;28803;52.308;19.096;2023-07-20T04:25:39;14.90;99.90
43185;DHT22;28803;52.308;19.096;2023-07-20T04:28:07;14.90;99.90
43185;DHT22;28803;52.308;19.096;2023-07-20T04:30:38;14.90;99.90
43185;DHT22;28803;52.308;19.096;2023-07-20T04:33:06;14.90;99.90
43185;DHT22;28803;52.308;19.096;2023-07-20T04:35:51;15.00;99.90
43185;DHT22;28803;52.308;19.096;2023-07-20T04:38:19;15.00;99.90
43185;DHT22;28803;52.308;19.096;2023-07-20T04:40:48;15.00;99.90
43185;DHT22;28803;52.308;19.096;2023-07-20T04:43:16;15.00;99.90
43185;DHT22;28803;52.308;19.096;2023-07-20T04:45:45;15.00;99.90
43185;DHT22;28803;52.308;19.096;2023-07-20T04:48:14;15.00;99.90
43185;DHT22;28803;52.308;19.096;2023-07-20T04:50:44;15.00;99.90
43185;DHT22;28803;52.308;19.096;2023-07-20T04:53:12;15.00;99.90
43185;DHT22;28803;52.308;19.096;2023-07-20T04:55:40;15.10;99.90
43185;DHT22;28803;52.308;19.096;2023-07-20T04:58:07;15.10;99.90
43185;DHT22;28803;52.308;19.096;2023-07-20T05:00:37;15.10;99.90
43185;DHT22;28803;52.308;19.096;2023-07-20T05:03:04;15.20;99.90
43185;DHT22;28803;52.308;19.096;2023-07-20T05:05:32;15.20;99.90
43185;DHT22;28803;52.308;19.096;2023-07-20T05:08:00;15.10;99.90
43185;DHT22;28803;52.308;19.096;2023-07-20T05:10:27;15.10;99.90
43185;DHT22;28803;52.308;19.096;2023-07-20T05:12:55;15.20;99.90
43185;DHT22;28803;52.308;19.096;2023-07-20T05:15:22;15.30;99.90
43185;DHT22;28803;52.308;19.096;2023-07-20T05:17:49;15.40;99.90
43185;DHT22;28803;52.308;19.096;2023-07-20T05:20:17;15.50;99.90
43185;DHT22;28803;52.308;19.096;2023-07-20T05:22:44;15.50;99.90
43185;DHT22;28803;52.308;19.096;2023-07-20T05:25:12;15.60;99.90
43185;DHT22;28803;52.308;19.096;2023-07-20T05:27:39;15.60;99.90
43185;DHT22;28803;52.308;19.096;2023-07-20T05:30:07;15.60;99.90
43185;DHT22;28803;52.308;19.096;2023-07-20T05:32:34;15.70;99.90
43185;DHT22;28803;52.308;19.096;2023-07-20T05:35:02;15.80;99.90
43185;DHT22;28803;52.308;19.096;2023-07-20T05:37:29;15.80;99.90
43185;DHT22;28803;52.308;19.096;2023-07-20T05:39:57;15.90;99.90
43185;DHT22;28803;52.308;19.096;2023-07-20T05:42:24;15.90;99.90
43185;DHT22;28803;52.308;19.096;2023-07-20T05:44:51;15.80;99.90
43185;DHT22;28803;52.308;19.096;2023-07-20T05:47:19;15.80;99.90
43185;DHT22;28803;52.308;19.096;2023-07-20T05:49:47;15.70;99.90
43185;DHT22;28803;52.308;19.096;2023-07-20T05:52:14;15.60;99.90
43185;DHT22;28803;52.308;19.096;2023-07-20T05:54:42;15.60;99.90
43185;DHT22;28803;52.308;19.096;2023-07-20T05:57:09;15.60;99.90
43185;DHT22;28803;52.308;19.096;2023-07-20T05:59:37;15.60;99.90
43185;DHT22;28803;52.308;19.096;2023-07-20T06:02:06;15.60;99.90
43185;DHT22;28803;52.308;19.096;2023-07-20T06:04:34;15.50;99.90
43185;DHT22;28803;52.308;19.096;2023-07-20T06:07:02;15.50;99.90
43185;DHT22;28803;52.308;19.096;2023-07-20T06:09:30;15.60;99.90
43185;DHT22;28803;52.308;19.096;2023-07-20T06:11:57;15.50;99.90
43185;DHT22;28803;52.308;19.096;2023-07-20T06:14:24;15.50;99.90
43185;DHT22;28803;52.308;19.096;2023-07-20T06:16:52;15.50;99.90
43185;DHT22;28803;52.308;19.096;2023-07-20T06:19:19;15.40;99.90
43185;DHT22;28803;52.308;19.096;2023-07-20T06:21:46;15.50;99.90
43185;DHT22;28803;52.308;19.096;2023-07-20T06:24:14;15.60;99.90
43185;DHT22;28803;52.308;19.096;2023-07-20T06:26:41;15.70;99.90
43185;DHT22;28803;52.308;19.096;2023-07-20T06:29:09;15.90;99.90
43185;DHT22;28803;52.308;19.096;2023-07-20T06:31:36;16.20;99.90
43185;DHT22;28803;52.308;19.096;2023-07-20T06:34:04;16.20;99.90
43185;DHT22;28803;52.308;19.096;2023-07-20T06:36:31;16.40;99.90
43185;DHT22;28803;52.308;19.096;2023-07-20T06:38:58;16.60;99.90
43185;DHT22;28803;52.308;19.096;2023-07-20T06:41:28;16.80;99.90
43185;DHT22;28803;52.308;19.096;2023-07-20T06:43:59;16.90;99.90
43185;DHT22;28803;52.308;19.096;2023-07-20T06:46:26;17.00;99.90
43185;DHT22;28803;52.308;19.096;2023-07-20T06:48:55;17.10;99.90
43185;DHT22;28803;52.308;19.096;2023-07-20T06:51:25;17.30;99.90
43185;DHT22;28803;52.308;19.096;2023-07-20T06:53:52;17.50;99.90
43185;DHT22;28803;52.308;19.096;2023-07-20T06:56:20;17.80;99.90
43185;DHT22;28803;52.308;19.096;2023-07-20T06:58:51;18.10;99.90
43185;DHT22;28803;52.308;19.096;2023-07-20T07:01:18;18.40;80.10
43185;DHT22;28803;52.308;19.096;2023-07-20T07:03:49;18.60;71.30
43185;DHT22;28803;52.308;19.096;2023-07-20T07:06:21;19.00;31.90
43185;DHT22;28803;52.308;19.096;2023-07-20T07:08:51;19.20;1.00
43185;DHT22;28803;52.308;19.096;2023-07-20T07:11:21;19.10;1.00
43185;DHT22;28803;52.308;19.096;2023-07-20T07:13:49;19.10;1.00
43185;DHT22;28803;52.308;19.096;2023-07-20T07:16:18;18.90;1.00
43185;DHT22;28803;52.308;19.096;2023-07-20T07:18:49;18.80;1.00
43185;DHT22;28803;52.308;19.096;2023-07-20T07:21:17;18.60;1.00
43185;DHT22;28803;52.308;19.096;2023-07-20T07:23:45;18.70;2.60
43185;DHT22;28803;52.308;19.096;2023-07-20T07:26:12;18.80;1.00
43185;DHT22;28803;52.308;19.096;2023-07-20T07:28:40;18.80;1.00
43185;DHT22;28803;52.308;19.096;2023-07-20T07:31:07;18.80;1.00
43185;DHT22;28803;52.308;19.096;2023-07-20T07:33:35;18.70;1.00
43185;DHT22;28803;52.308;19.096;2023-07-20T07:36:02;18.80;1.00
43185;DHT22;28803;52.308;19.096;2023-07-20T07:38:29;19.10;1.00
43185;DHT22;28803;52.308;19.096;2023-07-20T07:41:17;19.60;1.00
43185;DHT22;28803;52.308;19.096;2023-07-20T07:43:44;20.00;1.00
43185;DHT22;28803;52.308;19.096;2023-07-20T07:46:11;20.00;1.00
43185;DHT22;28803;52.308;19.096;2023-07-20T07:48:39;19.90;1.00
43185;DHT22;28803;52.308;19.096;2023-07-20T07:51:07;19.70;1.00
43185;DHT22;28803;52.308;19.096;2023-07-20T07:53:34;19.40;1.00
43185;DHT22;28803;52.308;19.096;2023-07-20T07:56:06;19.00;1.00
43185;DHT22;28803;52.308;19.096;2023-07-20T07:58:33;18.60;1.00
43185;DHT22;28803;52.308;19.096;2023-07-20T08:01:01;18.60;1.00
43185;DHT22;28803;52.308;19.096;2023-07-20T08:03:29;18.50;1.00
43185;DHT22;28803;52.308;19.096;2023-07-20T08:05:56;18.80;1.00
43185;DHT22;28803;52.308;19.096;2023-07-20T08:08:24;19.00;1.00
43185;DHT22;28803;52.308;19.096;2023-07-20T08:10:54;19.20;1.00
43185;DHT22;28803;52.308;19.096;2023-07-20T08:13:22;19.60;1.00
43185;DHT22;28803;52.308;19.096;2023-07-20T08:15:51;20.10;1.00
43185;DHT22;28803;52.308;19.096;2023-07-20T08:18:19;20.50;99.90
43185;DHT22;28803;52.308;19.096;2023-07-20T08:20:47;20.90;99.90
43185;DHT22;28803;52.308;19.096;2023-07-20T08:23:14;21.00;99.90
43185;DHT22;28803;52.308;19.096;2023-07-20T08:25:41;21.30;99.90
43185;DHT22;28803;52.308;19.096;2023-07-20T08:28:15;21.60;1.00
43185;DHT22;28803;52.308;19.096;2023-07-20T08:30:44;22.00;99.90
43185;DHT22;28803;52.308;19.096;2023-07-20T08:33:16;22.00;99.90
43185;DHT22;28803;52.308;19.096;2023-07-20T08:35:46;22.30;99.90
43185;DHT22;28803;52.308;19.096;2023-07-20T08:38:14;23.00;99.90
43185;DHT22;28803;52.308;19.096;2023-07-20T08:40:44;23.00;99.90
43185;DHT22;28803;52.308;19.096;2023-07-20T08:43:13;22.30;99.90
43185;DHT22;28803;52.308;19.096;2023-07-20T08:45:40;21.50;99.90
43185;DHT22;28803;52.308;19.096;2023-07-20T08:48:08;20.50;99.90
43185;DHT22;28803;52.308;19.096;2023-07-20T08:50:37;19.60;1.00
43185;DHT22;28803;52.308;19.096;2023-07-20T08:53:05;18.80;99.90
43185;DHT22;28803;52.308;19.096;2023-07-20T08:55:33;18.30;1.00
43185;DHT22;28803;52.308;19.096;2023-07-20T08:58:02;17.80;1.00
43185;DHT22;28803;52.308;19.096;2023-07-20T09:00:29;17.60;1.00
43185;DHT22;28803;52.308;19.096;2023-07-20T09:02:57;17.50;2.20
43185;DHT22;28803;52.308;19.096;2023-07-20T09:05:28;17.60;23.70
43185;DHT22;28803;52.308;19.096;2023-07-20T09:07:55;17.60;34.60
43185;DHT22;28803;52.308;19.096;2023-07-20T09:10:23;17.70;52.60
43185;DHT22;28803;52.308;19.096;2023-07-20T09:12:51;17.90;80.50
43185;DHT22;28803;52.308;19.096;2023-07-20T09:15:19;18.80;99.90
43185;DHT22;28803;52.308;19.096;2023-07-20T09:17:51;22.10;1.00
43185;DHT22;28803;52.308;19.096;2023-07-20T09:20:20;24.50;1.00
43185;DHT22;28803;52.308;19.096;2023-07-20T09:22:51;27.80;99.90
43185;DHT22;28803;52.308;19.096;2023-07-20T09:25:20;31.10;1.00
43185;DHT22;28803;52.308;19.096;2023-07-20T09:27:49;32.50;99.90
43185;DHT22;28803;52.308;19.096;2023-07-20T09:30:18;33.20;99.90
43185;DHT22;28803;52.308;19.096;2023-07-20T09:32:47;32.40;99.90
43185;DHT22;28803;52.308;19.096;2023-07-20T09:35:21;31.40;99.90
43185;DHT22;28803;52.308;19.096;2023-07-20T09:37:57;31.20;99.90
43185;DHT22;28803;52.308;19.096;2023-07-20T09:40:28;31.30;99.90
43185;DHT22;28803;52.308;19.096;2023-07-20T09:42:59;31.50;99.90
43185;DHT22;28803;52.308;19.096;2023-07-20T09:45:39;31.40;99.90
43185;DHT22;28803;52.308;19.096;2023-07-20T09:48:25;31.00;99.90
43185;DHT22;28803;52.308;19.096;2023-07-20T09:50:56;30.80;98.80
43185;DHT22;28803;52.308;19.096;2023-07-20T09:53:25;29.30;95.30
43185;DHT22;28803;52.308;19.096;2023-07-20T09:55:52;27.60;99.90
43185;DHT22;28803;52.308;19.096;2023-07-20T09:58:21;25.70;99.90
43185;DHT22;28803;52.308;19.096;2023-07-20T10:00:51;23.50;1.00
43185;DHT22;28803;52.308;19.096;2023-07-20T10:03:22;21.70;99.90
43185;DHT22;28803;52.308;19.096;2023-07-20T10:06:00;20.70;99.90
43185;DHT22;28803;52.308;19.096;2023-07-20T10:08:32;20.00;99.90
43185;DHT22;28803;52.308;19.096;2023-07-20T10:11:03;19.50;1.00
43185;DHT22;28803;52.308;19.096;2023-07-20T10:13:32;19.60;1.00
43185;DHT22;28803;52.308;19.096;2023-07-20T10:16:10;21.00;1.00
43185;DHT22;28803;52.308;19.096;2023-07-20T10:18:49;22.10;1.00
43185;DHT22;28803;52.308;19.096;2023-07-20T10:21:20;22.20;17.00
43185;DHT22;28803;52.308;19.096;2023-07-20T10:23:55;21.90;99.90
43185;DHT22;28803;52.308;19.096;2023-07-20T10:26:25;20.80;1.00
43185;DHT22;28803;52.308;19.096;2023-07-20T10:28:54;19.20;99.90
43185;DHT22;28803;52.308;19.096;2023-07-20T10:31:22;18.10;99.90
43185;DHT22;28803;52.308;19.096;2023-07-20T10:33:50;17.50;1.00
43185;DHT22;28803;52.308;19.096;2023-07-20T10:36:25;17.20;1.00
43185;DHT22;28803;52.308;19.096;2023-07-20T10:38:58;17.40;64.70
43185;DHT22;28803;52.308;19.096;2023-07-20T10:41:34;18.20;87.60
43185;DHT22;28803;52.308;19.096;2023-07-20T10:44:07;19.60;53.20
43185;DHT22;28803;52.308;19.096;2023-07-20T10:46:42;20.10;1.00
43185;DHT22;28803;52.308;19.096;2023-07-20T10:49:12;20.10;1.00
43185;DHT22;28803;52.308;19.096;2023-07-20T10:51:48;20.00;1.00
43185;DHT22;28803;52.308;19.096;2023-07-20T10:56:45;21.30;1.00
43185;DHT22;28803;52.308;19.096;2023-07-20T11:01:55;22.30;99.90
43185;DHT22;28803;52.308;19.096;2023-07-20T11:07:05;23.40;1.00
43185;DHT22;28803;52.308;19.096;2023-07-20T11:09:37;23.40;99.90
43185;DHT22;28803;52.308;19.096;2023-07-20T11:12:15;23.60;99.90
43185;DHT22;28803;52.308;19.096;2023-07-20T11:14:54;24.30;1.00
43185;DHT22;28803;52.308;19.096;2023-07-20T11:17:33;24.40;1.00
43185;DHT22;28803;52.308;19.096;2023-07-20T11:20:30;24.20;99.90
43185;DHT22;28803;52.308;19.096;2023-07-20T11:22:58;24.80;99.90
43185;DHT22;28803;52.308;19.096;2023-07-20T11:25:38;25.10;99.90
43185;DHT22;28803;52.308;19.096;2023-07-20T11:28:09;25.30;99.90
43185;DHT22;28803;52.308;19.096;2023-07-20T11:30:38;26.00;99.90
43185;DHT22;28803;52.308;19.096;2023-07-20T11:33:08;26.20;1.00
43185;DHT22;28803;52.308;19.096;2023-07-20T11:35:42;27.70;99.90
43185;DHT22;28803;52.308;19.096;2023-07-20T11:38:10;28.50;99.90
43185;DHT22;28803;52.308;19.096;2023-07-20T11:40:43;28.10;6.70
43185;DHT22;28803;52.308;19.096;2023-07-20T11:43:14;27.10;99.90
43185;DHT22;28803;52.308;19.096;2023-07-20T11:45:45;25.80;1.00
43185;DHT22;28803;52.308;19.096;2023-07-20T11:48:16;24.70;7.40
43185;DHT22;28803;52.308;19.096;2023-07-20T11:50:44;23.70;1.00
43185;DHT22;28803;52.308;19.096;2023-07-20T11:53:11;22.80;1.00
43185;DHT22;28803;52.308;19.096;2023-07-20T11:55:40;22.10;1.00
43185;DHT22;28803;52.308;19.096;2023-07-20T11:58:09;21.40;29.30
43185;DHT22;28803;52.308;19.096;2023-07-20T12:00:38;20.90;1.00
43185;DHT22;28803;52.308;19.096;2023-07-20T12:03:07;20.50;81.10
43185;DHT22;28803;52.308;19.096;2023-07-20T12:05:35;20.00;99.90
43185;DHT22;28803;52.308;19.096;2023-07-20T12:08:23;19.40;99.90
43185;DHT22;28803;52.308;19.096;2023-07-20T12:10:51;18.60;1.00
43185;DHT22;28803;52.308;19.096;2023-07-20T12:13:19;18.00;1.00
43185;DHT22;28803;52.308;19.096;2023-07-20T12:15:46;17.30;1.00
43185;DHT22;28803;52.308;19.096;2023-07-20T12:18:14;16.70;1.00
43185;DHT22;28803;52.308;19.096;2023-07-20T12:20:41;16.10;1.00
43185;DHT22;28803;52.308;19.096;2023-07-20T12:23:10;15.70;18.30
43185;DHT22;28803;52.308;19.096;2023-07-20T12:25:39;15.50;60.00
43185;DHT22;28803;52.308;19.096;2023-07-20T12:28:09;15.50;93.30
43185;DHT22;28803;52.308;19.096;2023-07-20T12:30:37;15.60;99.90
43185;DHT22;28803;52.308;19.096;2023-07-20T12:33:06;16.20;99.90
43185;DHT22;28803;52.308;19.096;2023-07-20T12:35:34;16.90;99.90
43185;DHT22;28803;52.308;19.096;2023-07-20T12:38:01;17.30;99.90
43185;DHT22;28803;52.308;19.096;2023-07-20T12:40:28;18.10;99.90
43185;DHT22;28803;52.308;19.096;2023-07-20T12:42:57;19.50;79.30
43185;DHT22;28803;52.308;19.096;2023-07-20T12:45:24;21.30;1.00
43185;DHT22;28803;52.308;19.096;2023-07-20T12:47:51;22.70;99.90
43185;DHT22;28803;52.308;19.096;2023-07-20T12:50:19;24.50;99.90
43185;DHT22;28803;52.308;19.096;2023-07-20T12:52:46;26.00;67.00
43185;DHT22;28803;52.308;19.096;2023-07-20T12:55:13;27.20;99.90
43185;DHT22;28803;52.308;19.096;2023-07-20T12:57:41;27.90;99.90
43185;DHT22;28803;52.308;19.096;2023-07-20T13:00:10;27.60;99.90
43185;DHT22;28803;52.308;19.096;2023-07-20T13:02:39;27.80;1.00
43185;DHT22;28803;52.308;19.096;2023-07-20T13:05:06;28.20;1.00
43185;DHT22;28803;52.308;19.096;2023-07-20T13:07:36;29.20;1.00
43185;DHT22;28803;52.308;19.096;2023-07-20T13:10:07;30.20;99.90
43185;DHT22;28803;52.308;19.096;2023-07-20T13:12:36;30.90;99.90
43185;DHT22;28803;52.308;19.096;2023-07-20T13:15:05;31.60;99.90
43185;DHT22;28803;52.308;19.096;2023-07-20T13:17:37;32.30;99.90
43185;DHT22;28803;52.308;19.096;2023-07-20T13:20:07;32.80;99.90
43185;DHT22;28803;52.308;19.096;2023-07-20T13:22:38;33.30;99.90
43185;DHT22;28803;52.308;19.096;2023-07-20T13:25:06;33.80;99.90
43185;DHT22;28803;52.308;19.096;2023-07-20T13:27:35;34.10;79.10
43185;DHT22;28803;52.308;19.096;2023-07-20T13:30:05;34.50;65.50
43185;DHT22;28803;52.308;19.096;2023-07-20T13:32:39;34.50;41.00
43185;DHT22;28803;52.308;19.096;2023-07-20T13:35:13;34.60;24.70
43185;DHT22;28803;52.308;19.096;2023-07-20T13:37:41;33.90;1.00
43185;DHT22;28803;52.308;19.096;2023-07-20T13:40:08;32.60;1.00
43185;DHT22;28803;52.308;19.096;2023-07-20T13:42:40;31.40;1.00
43185;DHT22;28803;52.308;19.096;2023-07-20T13:45:08;31.40;1.00
43185;DHT22;28803;52.308;19.096;2023-07-20T13:47:36;32.00;1.00
43185;DHT22;28803;52.308;19.096;2023-07-20T13:50:04;33.00;1.00
43185;DHT22;28803;52.308;19.096;2023-07-20T13:52:33;33.40;1.00
43185;DHT22;28803;52.308;19.096;2023-07-20T13:55:04;33.50;1.00
43185;DHT22;28803;52.308;19.096;2023-07-20T13:57:32;33.30;1.00
43185;DHT22;28803;52.308;19.096;2023-07-20T14:00:05;33.20;1.00
43185;DHT22;28803;52.308;19.096;2023-07-20T14:02:36;33.50;1.00
43185;DHT22;28803;52.308;19.096;2023-07-20T14:05:07;33.00;1.00
43185;DHT22;28803;52.308;19.096;2023-07-20T14:07:37;32.80;1.00
43185;DHT22;28803;52.308;19.096;2023-07-20T14:10:04;32.30;1.00
43185;DHT22;28803;52.308;19.096;2023-07-20T14:12:35;32.40;1.00
43185;DHT22;28803;52.308;19.096;2023-07-20T14:15:03;32.30;1.00
43185;DHT22;28803;52.308;19.096;2023-07-20T14:17:32;32.40;1.00
43185;DHT22;28803;52.308;19.096;2023-07-20T14:19:59;32.70;1.00
43185;DHT22;28803;52.308;19.096;2023-07-20T14:22:27;33.10;1.00
43185;DHT22;28803;52.308;19.096;2023-07-20T14:24:54;33.50;1.00
43185;DHT22;28803;52.308;19.096;2023-07-20T14:27:21;33.60;1.00
43185;DHT22;28803;52.308;19.096;2023-07-20T14:29:49;33.20;1.00
43185;DHT22;28803;52.308;19.096;2023-07-20T14:32:16;32.70;1.00
43185;DHT22;28803;52.308;19.096;2023-07-20T14:34:43;32.50;1.00
43185;DHT22;28803;52.308;19.096;2023-07-20T14:37:11;30.90;1.00
43185;DHT22;28803;52.308;19.096;2023-07-20T14:39:40;28.40;1.00
43185;DHT22;28803;52.308;19.096;2023-07-20T14:42:07;25.90;1.00
43185;DHT22;28803;52.308;19.096;2023-07-20T14:44:35;23.80;1.00
43185;DHT22;28803;52.308;19.096;2023-07-20T14:47:04;22.20;1.00
43185;DHT22;28803;52.308;19.096;2023-07-20T14:49:41;20.90;1.00
43185;DHT22;28803;52.308;19.096;2023-07-20T14:52:09;19.80;99.90
43185;DHT22;28803;52.308;19.096;2023-07-20T14:54:39;18.60;1.00
43185;DHT22;28803;52.308;19.096;2023-07-20T14:57:07;17.70;1.00
43185;DHT22;28803;52.308;19.096;2023-07-20T14:59:41;17.10;1.00
43185;DHT22;28803;52.308;19.096;2023-07-20T15:02:12;16.60;99.90
43185;DHT22;28803;52.308;19.096;2023-07-20T15:04:51;16.30;99.90
43185;DHT22;28803;52.308;19.096;2023-07-20T15:07:21;16.10;99.90
43185;DHT22;28803;52.308;19.096;2023-07-20T15:09:49;15.90;1.00
43185;DHT22;28803;52.308;19.096;2023-07-20T15:12:17;15.80;1.00
43185;DHT22;28803;52.308;19.096;2023-07-20T15:14:44;15.70;1.00
43185;DHT22;28803;52.308;19.096;2023-07-20T15:17:16;15.60;1.00
43185;DHT22;28803;52.308;19.096;2023-07-20T15:19:43;15.50;1.00
43185;DHT22;28803;52.308;19.096;2023-07-20T15:22:11;15.50;2.40
43185;DHT22;28803;52.308;19.096;2023-07-20T15:24:39;15.60;45.50
43185;DHT22;28803;52.308;19.096;2023-07-20T15:27:06;15.70;59.90
43185;DHT22;28803;52.308;19.096;2023-07-20T15:29:34;15.90;61.50
43185;DHT22;28803;52.308;19.096;2023-07-20T15:32:02;16.00;40.40
43185;DHT22;28803;52.308;19.096;2023-07-20T15:34:30;16.00;41.30
43185;DHT22;28803;52.308;19.096;2023-07-20T15:36:57;16.30;50.90
43185;DHT22;28803;52.308;19.096;2023-07-20T15:39:25;16.30;54.00
43185;DHT22;28803;52.308;19.096;2023-07-20T15:41:55;16.40;56.00
43185;DHT22;28803;52.308;19.096;2023-07-20T15:44:22;16.50;52.80
43185;DHT22;28803;52.308;19.096;2023-07-20T15:46:49;16.90;47.70
43185;DHT22;28803;52.308;19.096;2023-07-20T15:49:17;16.90;48.00
43185;DHT22;28803;52.308;19.096;2023-07-20T15:51:45;17.20;20.50